createdAt,value
2018-12-21T00:02:29.319Z,97.50
2018-12-21T00:05:00.756Z,97.60
2018-12-21T00:07:32.307Z,97.50
2018-12-21T00:10:06.488Z,97.30
2018-12-21T00:12:37.937Z,97.30
2018-12-21T00:15:09.664Z,97.20
2018-12-21T00:17:41.182Z,97.10
2018-12-21T00:20:13.875Z,97.10
2018-12-21T00:22:45.474Z,97.10
2018-12-21T00:25:16.979Z,97.00
2018-12-21T00:27:48.580Z,97.20
2018-12-21T00:30:22.721Z,97.10
2018-12-21T00:32:59.059Z,97.10
2018-12-21T00:35:35.779Z,97.10
2018-12-21T00:38:12.182Z,97.40
2018-12-21T00:40:48.502Z,97.20
2018-12-21T00:43:24.881Z,97.30
2018-12-21T00:46:00.790Z,97.30
2018-12-21T00:48:32.345Z,97.20
2018-12-21T00:51:03.895Z,96.90
2018-12-21T00:53:35.463Z,96.90
2018-12-21T00:56:06.953Z,97.10
2018-12-21T00:58:38.504Z,97.10
2018-12-21T01:01:10.166Z,97.20
2018-12-21T01:03:41.775Z,96.90
2018-12-21T01:06:13.271Z,97.00
2018-12-21T01:08:44.884Z,97.10
2018-12-21T01:11:16.486Z,97.10
2018-12-21T01:13:48.028Z,96.90
2018-12-21T01:16:19.481Z,96.90
2018-12-21T01:18:51.114Z,96.60
2018-12-21T01:21:22.511Z,96.60
2018-12-21T01:23:54.259Z,96.50
2018-12-21T01:26:25.718Z,96.70
2018-12-21T01:28:57.270Z,96.60
2018-12-21T01:31:28.731Z,96.60
2018-12-21T01:34:00.363Z,96.40
2018-12-21T01:36:31.777Z,96.30
2018-12-21T01:39:03.837Z,96.20
2018-12-21T01:41:35.441Z,96.30
2018-12-21T01:44:06.983Z,96.20
2018-12-21T01:46:38.535Z,96.20
2018-12-21T01:49:09.990Z,96.00
2018-12-21T01:51:47.006Z,96.20
2018-12-21T01:54:15.280Z,96.10
2018-12-21T01:56:46.715Z,96.20
2018-12-21T01:59:18.254Z,96.10
2018-12-21T02:01:49.706Z,96.20
2018-12-21T02:04:21.257Z,96.10
2018-12-21T02:06:52.730Z,96.20
2018-12-21T02:09:24.372Z,96.20
2018-12-21T02:11:55.836Z,96.20
2018-12-21T02:14:27.426Z,96.10
2018-12-21T02:16:58.826Z,96.20
2018-12-21T02:19:30.433Z,96.10
2018-12-21T02:22:01.838Z,96.10
2018-12-21T02:24:33.245Z,96.20
2018-12-21T02:27:04.867Z,96.20
2018-12-21T02:29:36.243Z,96.30
2018-12-21T02:32:07.832Z,96.10
2018-12-21T02:34:39.251Z,95.90
2018-12-21T02:37:10.743Z,95.90
2018-12-21T02:39:42.361Z,95.80
2018-12-21T02:42:13.864Z,95.90
2018-12-21T02:44:45.458Z,95.90
2018-12-21T02:47:16.870Z,95.90
2018-12-21T02:49:48.371Z,96.00
2018-12-21T02:52:19.872Z,96.00
2018-12-21T02:54:51.477Z,96.00
2018-12-21T02:57:22.976Z,96.00
2018-12-21T02:59:54.518Z,95.90
2018-12-21T03:02:25.996Z,96.00
2018-12-21T03:04:57.604Z,96.00
2018-12-21T03:07:29.086Z,96.40
2018-12-21T03:10:00.626Z,95.90
2018-12-21T03:12:32.102Z,96.10
2018-12-21T03:15:04.771Z,96.10
2018-12-21T03:17:36.374Z,96.10
2018-12-21T03:20:07.986Z,96.10
2018-12-21T03:22:39.538Z,96.10
2018-12-21T03:25:11.051Z,96.20
2018-12-21T03:27:42.638Z,96.30
2018-12-21T03:30:14.251Z,96.30
2018-12-21T03:32:45.773Z,96.40
2018-12-21T03:35:17.273Z,96.30
2018-12-21T03:37:48.768Z,96.20
2018-12-21T03:40:20.384Z,96.20
2018-12-21T03:42:51.960Z,96.10
2018-12-21T03:45:23.344Z,96.00
2018-12-21T03:47:54.856Z,95.90
2018-12-21T03:50:26.283Z,95.90
2018-12-21T03:52:57.865Z,95.80
2018-12-21T03:55:29.286Z,95.90
2018-12-21T03:58:00.881Z,95.80
2018-12-21T04:00:32.491Z,95.70
2018-12-21T04:03:04.502Z,95.60
2018-12-21T04:05:36.000Z,95.40
2018-12-21T04:08:07.606Z,95.30
2018-12-21T04:10:39.162Z,95.20
2018-12-21T04:13:10.583Z,95.20
2018-12-21T04:15:42.172Z,95.10
2018-12-21T04:18:13.596Z,95.10
2018-12-21T04:20:45.166Z,94.90
2018-12-21T04:23:16.690Z,94.90
2018-12-21T04:25:48.183Z,95.00
2018-12-21T04:28:19.782Z,95.00
2018-12-21T04:30:51.307Z,95.10
2018-12-21T04:33:22.696Z,95.00
2018-12-21T04:35:54.276Z,95.30
2018-12-21T04:38:25.704Z,95.10
2018-12-21T04:40:57.324Z,95.00
2018-12-21T04:43:28.798Z,95.10
2018-12-21T04:46:00.348Z,95.10
2018-12-21T04:48:31.756Z,95.10
2018-12-21T04:51:03.295Z,95.20
2018-12-21T04:53:34.857Z,95.10
2018-12-21T04:56:06.408Z,95.20
2018-12-21T04:58:37.967Z,95.30
2018-12-21T05:01:09.515Z,95.20
2018-12-21T05:03:41.072Z,95.20
2018-12-21T05:06:12.636Z,95.10
2018-12-21T05:08:44.034Z,95.20
2018-12-21T05:11:15.633Z,95.30
2018-12-21T05:13:47.046Z,95.40
2018-12-21T05:16:18.637Z,95.60
2018-12-21T05:18:50.251Z,95.60
2018-12-21T05:21:21.738Z,95.80
2018-12-21T05:23:53.254Z,95.80
2018-12-21T05:26:24.760Z,95.80
2018-12-21T05:28:56.362Z,95.90
2018-12-21T05:31:28.533Z,96.00
2018-12-21T05:34:00.348Z,96.00
2018-12-21T05:36:32.041Z,95.90
2018-12-21T05:39:04.159Z,96.00
2018-12-21T05:41:35.619Z,95.90
2018-12-21T05:44:07.228Z,95.90
2018-12-21T05:46:38.732Z,95.90
2018-12-21T05:49:10.279Z,96.30
2018-12-21T05:51:41.849Z,96.10
2018-12-21T05:54:13.473Z,96.00
2018-12-21T05:56:44.894Z,96.00
2018-12-21T05:59:16.482Z,95.90
2018-12-21T06:01:47.911Z,95.90
2018-12-21T06:04:19.480Z,95.90
2018-12-21T06:06:50.910Z,95.80
2018-12-21T06:09:22.500Z,95.70
2018-12-21T06:11:54.051Z,95.80
2018-12-21T06:14:25.600Z,95.70
2018-12-21T06:16:57.031Z,95.70
2018-12-21T06:19:28.612Z,95.60
2018-12-21T06:22:00.165Z,95.50
2018-12-21T06:24:31.723Z,95.50
2018-12-21T06:27:03.186Z,95.50
2018-12-21T06:29:34.722Z,95.40
2018-12-21T06:32:06.347Z,95.30
2018-12-21T06:34:37.839Z,95.10
2018-12-21T06:37:09.447Z,95.00
2018-12-21T06:39:40.843Z,94.80
2018-12-21T06:42:12.239Z,94.80
2018-12-21T06:44:43.842Z,94.60
2018-12-21T06:47:15.260Z,94.50
2018-12-21T06:49:46.852Z,94.70
2018-12-21T06:52:18.458Z,94.70
2018-12-21T06:54:49.865Z,94.90
2018-12-21T06:57:21.271Z,94.80
2018-12-21T06:59:52.867Z,94.70
2018-12-21T07:02:24.473Z,94.80
2018-12-21T07:04:55.966Z,94.80
2018-12-21T07:07:27.583Z,94.80
2018-12-21T07:09:59.093Z,94.80
2018-12-21T07:12:30.538Z,94.80
2018-12-21T07:15:02.290Z,94.80
2018-12-21T07:17:33.900Z,94.80
2018-12-21T07:20:05.482Z,94.80
2018-12-21T07:22:37.042Z,94.70
2018-12-21T07:25:09.569Z,94.50
2018-12-21T07:27:40.986Z,94.60
2018-12-21T07:30:14.168Z,94.50
2018-12-21T07:32:45.636Z,94.60
2018-12-21T07:35:19.131Z,94.50
2018-12-21T07:37:50.534Z,94.40
2018-12-21T07:40:22.130Z,94.20
2018-12-21T07:42:53.676Z,94.20
2018-12-21T07:45:25.222Z,94.30
2018-12-21T07:47:56.648Z,94.20
2018-12-21T07:50:28.239Z,94.20
2018-12-21T07:52:59.665Z,94.20
2018-12-21T07:55:31.243Z,94.00
2018-12-21T07:58:02.855Z,94.10
2018-12-21T08:00:34.343Z,93.80
2018-12-21T08:03:05.982Z,93.70
2018-12-21T08:05:37.467Z,93.70
2018-12-21T08:08:09.073Z,93.60
2018-12-21T08:10:40.470Z,93.60
2018-12-21T08:13:12.079Z,93.70
2018-12-21T08:15:43.588Z,93.70
2018-12-21T08:18:15.128Z,94.20
2018-12-21T08:20:46.594Z,93.80
2018-12-21T08:23:18.124Z,93.60
2018-12-21T08:25:49.592Z,93.50
2018-12-21T08:28:21.236Z,93.50
2018-12-21T08:30:52.693Z,93.40
2018-12-21T08:33:24.238Z,93.80
2018-12-21T08:35:55.695Z,93.50
2018-12-21T08:38:27.298Z,93.80
2018-12-21T08:40:59.930Z,93.90
2018-12-21T08:43:31.289Z,94.20
2018-12-21T08:46:02.827Z,94.40
2018-12-21T08:48:34.250Z,95.10
2018-12-21T08:51:05.949Z,95.20
2018-12-21T08:53:37.363Z,95.70
2018-12-21T08:56:08.939Z,96.30
2018-12-21T08:58:40.462Z,97.00
2018-12-21T09:01:12.050Z,97.50
2018-12-21T09:03:43.596Z,97.80
2018-12-21T09:06:18.607Z,98.20
2018-12-21T09:08:48.857Z,98.40
2018-12-21T09:11:20.372Z,98.60
2018-12-21T09:13:51.974Z,98.70
2018-12-21T09:16:23.485Z,98.60
2018-12-21T09:18:55.081Z,98.50
2018-12-21T09:21:26.514Z,98.50
2018-12-21T09:24:01.088Z,98.70
2018-12-21T09:26:31.681Z,98.80
2018-12-21T09:29:03.243Z,98.60
2018-12-21T09:31:34.786Z,98.90
2018-12-21T09:34:06.347Z,98.90
2018-12-21T09:36:37.907Z,99.10
2018-12-21T09:39:09.865Z,99.10
2018-12-21T09:41:41.288Z,99.30
2018-12-21T09:44:12.858Z,99.30
2018-12-21T09:46:44.417Z,99.20
2018-12-21T09:49:15.976Z,99.30
2018-12-21T09:51:47.534Z,99.60
2018-12-21T09:54:19.098Z,99.60
2018-12-21T09:56:50.501Z,99.90
2018-12-21T09:59:22.092Z,99.90
2018-12-21T10:01:53.498Z,99.90
2018-12-21T10:04:24.996Z,99.90
2018-12-21T10:06:56.548Z,99.90
2018-12-21T10:09:28.094Z,99.90
2018-12-21T10:11:59.514Z,99.90
2018-12-21T10:14:31.004Z,99.90
2018-12-21T10:17:02.423Z,99.90
2018-12-21T10:19:34.008Z,99.90
2018-12-21T10:22:05.423Z,99.90
2018-12-21T10:24:37.015Z,99.90
2018-12-21T10:27:08.632Z,99.90
2018-12-21T10:29:40.137Z,99.90
2018-12-21T10:32:11.641Z,99.90
2018-12-21T10:34:43.137Z,99.90
2018-12-21T10:37:16.712Z,99.90
2018-12-21T10:39:48.203Z,99.90
2018-12-21T10:42:19.799Z,99.90
2018-12-21T10:44:51.295Z,99.90
2018-12-21T10:47:22.901Z,99.90
2018-12-21T10:49:54.302Z,99.90
2018-12-21T10:52:25.916Z,99.90
2018-12-21T10:54:57.412Z,99.90
2018-12-21T10:57:29.010Z,99.90
2018-12-21T11:00:00.421Z,99.80
2018-12-21T11:02:32.018Z,99.70
2018-12-21T11:05:03.511Z,99.90
2018-12-21T11:07:34.963Z,99.50
2018-12-21T11:10:10.078Z,99.60
2018-12-21T11:12:41.674Z,99.50
2018-12-21T11:15:13.119Z,99.30
2018-12-21T11:17:44.677Z,99.30
2018-12-21T11:20:16.126Z,99.10
2018-12-21T11:22:47.669Z,99.40
2018-12-21T11:25:19.139Z,99.40
2018-12-21T11:27:50.683Z,99.60
2018-12-21T11:30:22.091Z,99.50
2018-12-21T11:32:53.682Z,99.60
2018-12-21T11:35:25.099Z,99.80
2018-12-21T11:37:56.683Z,99.90
2018-12-21T11:40:28.901Z,99.90
2018-12-21T11:43:00.421Z,99.90
2018-12-21T11:45:31.963Z,99.90
2018-12-21T11:48:03.520Z,99.90
2018-12-21T11:50:34.934Z,99.90
2018-12-21T11:53:06.523Z,99.90
2018-12-21T11:55:38.134Z,99.90
2018-12-21T11:58:09.615Z,99.90
2018-12-21T12:00:41.238Z,99.90
2018-12-21T12:03:12.640Z,99.90
2018-12-21T12:05:44.251Z,99.90
2018-12-21T12:08:15.760Z,99.90
2018-12-21T12:10:47.354Z,99.90
2018-12-21T12:13:18.851Z,99.90
2018-12-21T12:15:50.467Z,99.90
2018-12-21T12:18:21.990Z,99.90
2018-12-21T12:20:53.509Z,99.90
2018-12-21T12:23:24.971Z,99.90
2018-12-21T12:25:56.579Z,99.90
2018-12-21T12:28:28.078Z,99.30
2018-12-21T12:30:59.646Z,99.50
2018-12-21T12:33:31.096Z,99.40
2018-12-21T12:36:02.630Z,99.60
2018-12-21T12:38:34.098Z,99.50
2018-12-21T12:41:06.775Z,99.70
2018-12-21T12:43:38.580Z,99.70
2018-12-21T12:46:10.171Z,99.90
2018-12-21T12:48:41.595Z,99.80
2018-12-21T12:51:13.191Z,99.90
2018-12-21T12:53:44.737Z,99.90
2018-12-21T12:56:16.292Z,99.90
2018-12-21T12:58:47.719Z,99.90
2018-12-21T13:01:19.309Z,99.90
2018-12-21T13:03:50.912Z,99.90
2018-12-21T13:06:22.415Z,99.90
2018-12-21T13:08:54.013Z,99.90
2018-12-21T13:11:25.505Z,99.90
2018-12-21T13:13:58.554Z,99.90
2018-12-21T13:16:30.055Z,99.90
2018-12-21T13:19:01.460Z,99.90
2018-12-21T13:21:32.955Z,99.90
2018-12-21T13:24:04.377Z,99.90
2018-12-21T13:26:35.956Z,99.90
2018-12-21T13:29:07.418Z,99.90
2018-12-21T13:31:39.031Z,99.90
2018-12-21T13:34:10.538Z,99.90
2018-12-21T13:36:42.075Z,99.90
2018-12-21T13:39:13.531Z,99.90
2018-12-21T13:41:45.078Z,99.90
2018-12-21T13:44:16.530Z,99.90
2018-12-21T13:46:48.074Z,99.90
2018-12-21T13:49:19.442Z,99.90
2018-12-21T13:51:50.980Z,99.90
2018-12-21T13:54:22.446Z,99.90
2018-12-21T13:56:54.147Z,99.90
2018-12-21T13:59:25.573Z,99.90
2018-12-21T14:01:56.968Z,99.90
2018-12-21T14:04:28.557Z,99.90
2018-12-21T14:06:59.967Z,99.90
2018-12-21T14:09:31.567Z,99.90
2018-12-21T14:12:02.969Z,99.90
2018-12-21T14:14:35.538Z,99.90
2018-12-21T14:17:07.149Z,99.90
2018-12-21T14:19:38.678Z,99.90
2018-12-21T14:22:10.111Z,99.90
2018-12-21T14:24:41.694Z,99.90
2018-12-21T14:27:13.167Z,99.90
2018-12-21T14:29:46.217Z,99.90
2018-12-21T14:32:17.752Z,99.90
2018-12-21T14:34:49.307Z,99.90
2018-12-21T14:37:20.811Z,99.90
2018-12-21T14:39:52.419Z,99.90
2018-12-21T14:42:23.909Z,99.90
2018-12-21T14:44:55.451Z,99.90
2018-12-21T14:47:27.035Z,99.90
2018-12-21T14:49:58.592Z,99.90
2018-12-21T14:52:30.023Z,99.90
2018-12-21T14:55:01.577Z,99.90
2018-12-21T14:57:33.607Z,99.90
2018-12-21T15:00:08.171Z,99.90
2018-12-21T15:02:39.723Z,99.90
2018-12-21T15:05:11.683Z,99.90
2018-12-21T15:07:43.151Z,99.90
2018-12-21T15:10:14.743Z,99.90
2018-12-21T15:12:46.254Z,99.90
2018-12-21T15:15:17.652Z,99.90
2018-12-21T15:17:49.246Z,99.90
2018-12-21T15:20:20.718Z,99.90
2018-12-21T15:22:52.311Z,99.90
2018-12-21T15:25:23.834Z,99.90
2018-12-21T15:27:55.425Z,99.90
2018-12-21T15:30:26.917Z,99.90
2018-12-21T15:32:58.532Z,99.90
2018-12-21T15:35:30.036Z,99.90
2018-12-21T15:38:01.583Z,99.90
2018-12-21T15:40:33.038Z,99.90
2018-12-21T15:43:04.552Z,99.90
2018-12-21T15:45:37.059Z,99.90
2018-12-21T15:48:08.515Z,99.90
2018-12-21T15:50:40.165Z,99.90
2018-12-21T15:53:11.578Z,99.90
2018-12-21T15:55:43.167Z,99.90
2018-12-21T15:58:14.579Z,99.90
2018-12-21T16:00:46.183Z,99.90
2018-12-21T16:03:17.596Z,99.90
2018-12-21T16:05:49.183Z,99.90
2018-12-21T16:08:20.596Z,99.90
2018-12-21T16:10:52.288Z,99.90
2018-12-21T16:13:23.845Z,99.90
2018-12-21T16:15:55.402Z,99.90
2018-12-21T16:18:26.823Z,99.90
2018-12-21T16:20:58.400Z,99.90
2018-12-21T16:23:29.953Z,99.90
2018-12-21T16:26:03.688Z,99.90
2018-12-21T16:28:35.102Z,99.90
2018-12-21T16:31:06.543Z,99.90
2018-12-21T16:33:38.120Z,99.90
2018-12-21T16:36:09.669Z,99.90
2018-12-21T16:38:41.221Z,99.90
2018-12-21T16:41:12.645Z,99.90
2018-12-21T16:43:44.226Z,99.90
2018-12-21T16:46:15.642Z,99.90
2018-12-21T16:48:47.513Z,99.90
2018-12-21T16:51:19.200Z,99.90
2018-12-21T16:53:50.666Z,99.90
2018-12-21T16:56:22.202Z,99.90
2018-12-21T16:58:53.664Z,99.90
2018-12-21T17:01:25.211Z,99.90
2018-12-21T17:03:56.775Z,99.90
2018-12-21T17:06:28.314Z,99.90
2018-12-21T17:08:59.780Z,99.90
2018-12-21T17:11:31.323Z,99.90
2018-12-21T17:14:02.686Z,99.90
2018-12-21T17:16:34.225Z,99.90
2018-12-21T17:19:18.070Z,99.90
2018-12-21T17:21:49.490Z,99.90
2018-12-21T17:24:21.074Z,99.90
2018-12-21T17:26:53.254Z,99.90
2018-12-21T17:29:24.793Z,99.90
2018-12-21T17:31:56.363Z,99.90
2018-12-21T17:34:27.759Z,99.90
2018-12-21T17:36:59.342Z,99.90
2018-12-21T17:39:30.979Z,99.90
2018-12-21T17:42:02.481Z,99.90
2018-12-21T17:44:34.030Z,99.90
2018-12-21T17:47:05.484Z,99.90
2018-12-21T17:49:36.892Z,99.90
2018-12-21T17:52:08.492Z,99.90
2018-12-21T17:54:39.907Z,99.90
2018-12-21T17:57:11.483Z,99.90
2018-12-21T17:59:43.098Z,99.90
2018-12-21T18:02:14.607Z,99.90
2018-12-21T18:04:46.194Z,99.90
2018-12-21T18:07:17.707Z,99.90
2018-12-21T18:09:49.121Z,99.90
2018-12-21T18:12:20.707Z,99.90
2018-12-21T18:14:52.307Z,99.90
2018-12-21T18:17:23.831Z,99.90
2018-12-21T18:19:55.224Z,99.90
2018-12-21T18:22:27.641Z,99.90
2018-12-21T18:25:03.900Z,99.90
2018-12-21T18:27:37.602Z,99.90
2018-12-21T18:30:16.210Z,99.90
2018-12-21T18:32:47.676Z,99.90
2018-12-21T18:35:20.765Z,99.90
2018-12-21T18:38:00.694Z,99.90
2018-12-21T18:40:33.372Z,99.90
2018-12-21T18:43:04.859Z,99.90
2018-12-21T18:45:36.460Z,99.90
2018-12-21T18:48:07.978Z,99.90
2018-12-21T18:50:39.369Z,99.90
2018-12-21T18:53:10.951Z,99.90
2018-12-21T18:55:42.918Z,99.90
2018-12-21T18:58:14.335Z,99.90
2018-12-21T19:00:45.919Z,99.90
2018-12-21T19:03:17.434Z,99.90
2018-12-21T19:05:48.930Z,99.90
2018-12-21T19:08:20.339Z,99.90
2018-12-21T19:10:51.935Z,99.90
2018-12-21T19:13:23.358Z,99.90
2018-12-21T19:15:54.947Z,99.90
2018-12-21T19:18:26.361Z,99.90
2018-12-21T19:20:57.953Z,99.90
2018-12-21T19:23:29.369Z,99.90
2018-12-21T19:26:00.948Z,99.90
2018-12-21T19:28:32.414Z,99.90
2018-12-21T19:31:03.763Z,99.90
2018-12-21T19:33:35.304Z,99.90
2018-12-21T19:36:06.916Z,99.90
2018-12-21T19:38:38.428Z,99.90
2018-12-21T19:41:11.907Z,99.90
2018-12-21T19:43:43.671Z,99.90
2018-12-21T19:46:15.231Z,99.90
2018-12-21T19:48:46.640Z,99.90
2018-12-21T19:51:18.239Z,99.90
2018-12-21T19:53:50.182Z,99.50
2018-12-21T19:57:30.472Z,98.90
2018-12-21T20:00:02.080Z,98.90
2018-12-21T20:02:33.530Z,98.50
2018-12-21T20:05:05.288Z,97.60
2018-12-21T20:07:36.764Z,97.50
2018-12-21T20:10:09.664Z,97.10
2018-12-21T20:12:41.097Z,97.00
2018-12-21T20:15:12.682Z,96.70
2018-12-21T20:17:44.157Z,96.10
2018-12-21T20:20:15.543Z,96.30
2018-12-21T20:22:47.131Z,95.90
2018-12-21T20:25:18.748Z,95.80
2018-12-21T20:27:50.764Z,95.30
2018-12-21T20:30:22.520Z,95.10
2018-12-21T20:32:54.237Z,95.10
2018-12-21T20:35:25.990Z,95.40
2018-12-21T20:37:57.564Z,95.10
2018-12-21T20:40:29.189Z,94.60
2018-12-21T20:43:02.321Z,93.90
2018-12-21T20:45:33.761Z,94.00
2018-12-21T20:48:05.336Z,94.20
2018-12-21T20:50:36.953Z,93.80
2018-12-21T20:53:08.450Z,93.80
2018-12-21T20:55:40.048Z,94.00
2018-12-21T20:58:24.339Z,94.10
2018-12-21T21:00:55.814Z,93.70
2018-12-21T21:03:27.409Z,93.40
2018-12-21T21:05:58.907Z,93.30
2018-12-21T21:08:30.520Z,93.20
2018-12-21T21:11:02.030Z,92.60
2018-12-21T21:13:33.636Z,92.60
2018-12-21T21:16:05.139Z,92.30
2018-12-21T21:18:36.667Z,92.60
2018-12-21T21:21:08.241Z,92.50
2018-12-21T21:23:39.788Z,92.60
2018-12-21T21:26:11.207Z,92.50
2018-12-21T21:28:42.789Z,92.50
2018-12-21T21:31:14.342Z,92.60
2018-12-21T21:33:45.893Z,92.50
2018-12-21T21:36:17.324Z,92.60
2018-12-21T21:38:48.894Z,92.40
2018-12-21T21:41:20.507Z,92.60
2018-12-21T21:43:52.015Z,92.90
2018-12-21T21:46:23.624Z,92.40
2018-12-21T21:48:55.130Z,92.20
2018-12-21T21:51:26.728Z,92.60
2018-12-21T21:53:58.235Z,92.30
2018-12-21T21:56:29.836Z,91.80
2018-12-21T21:59:01.348Z,92.00
2018-12-21T22:01:32.947Z,91.90
2018-12-21T22:04:04.704Z,92.20
2018-12-21T22:06:36.395Z,91.60
2018-12-21T22:09:08.529Z,91.40
2018-12-21T22:11:40.031Z,91.60
2018-12-21T22:14:11.572Z,91.70
2018-12-21T22:16:43.025Z,91.50
2018-12-21T22:19:14.594Z,91.70
2018-12-21T22:21:46.109Z,91.50
2018-12-21T22:24:17.696Z,91.90
2018-12-21T22:26:49.101Z,91.70
2018-12-21T22:29:20.687Z,91.80
2018-12-21T22:31:52.240Z,91.90
2018-12-21T22:34:23.757Z,91.80
2018-12-21T22:36:55.524Z,92.10
2018-12-21T22:39:27.028Z,92.10
2018-12-21T22:41:58.618Z,92.20
2018-12-21T22:44:30.080Z,92.40
2018-12-21T22:47:01.732Z,92.40
2018-12-21T22:49:33.240Z,92.40
2018-12-21T22:52:04.845Z,92.40
2018-12-21T22:54:36.459Z,92.60
2018-12-21T22:57:08.050Z,92.60
2018-12-21T22:59:39.640Z,92.60
2018-12-21T23:02:11.205Z,92.50
2018-12-21T23:04:42.659Z,92.70
2018-12-21T23:07:14.273Z,92.70
2018-12-21T23:09:45.759Z,93.10
2018-12-21T23:12:17.307Z,93.00
2018-12-21T23:14:48.803Z,92.90
2018-12-21T23:17:20.376Z,92.90
2018-12-21T23:19:51.890Z,92.90
2018-12-21T23:22:23.629Z,93.00
2018-12-21T23:24:55.242Z,92.90
2018-12-21T23:27:26.936Z,92.30
2018-12-21T23:29:58.350Z,92.20
2018-12-21T23:32:29.961Z,91.90
2018-12-21T23:35:01.496Z,91.60
2018-12-21T23:37:33.067Z,91.50
2018-12-21T23:40:04.680Z,91.60
2018-12-21T23:42:36.178Z,91.60
2018-12-21T23:45:08.198Z,91.70
2018-12-21T23:47:39.855Z,91.80
2018-12-21T23:50:11.366Z,91.80
2018-12-21T23:52:42.948Z,91.90
2018-12-21T23:55:14.462Z,92.10
2018-12-21T23:57:45.994Z,92.20
